United States

Ashburn, VA Weather Archive

Below you will find the last 24 hours of weather readings for Ashburn VA

Ashburn VA Today's Weather Data

Observed at: Ashburn, VA

Hour Observerd Temp Pressure Visibility Humidity Dew Point Wind
01:00 Mostly Cloudy 46°F (7.8°C) 102.07 kPa 10 miles 59% 32.5°F (0.3°C) 1 mph S 175°2 mph
00:00 Overcast 46°F (7.8°C) 102.07 kPa 10 miles 59% 32.5°F (0.3°C) 2 mph S 170°4 mph
23:00 Overcast 45°F (7.2°C) 102.07 kPa 10 miles 59% 31.5°F (-0.3°C) 1 mph SW 214°2 mph
22:00 Overcast 44°F (6.7°C) 102.1 kPa 10 miles 60% 31°F (-0.5°C) 1 mph SW 234°
21:00 Overcast 46°F (7.8°C) 102.24 kPa 10 miles 55% 30.8°F (-0.7°C) 1 mph SSE 155°2 mph
20:00 Partly Cloudy 46°F (7.8°C) 102.3 kPa 10 miles 55% 30.8°F (-0.7°C) 1 mph SW 232°
19:00 Overcast 47°F (8.3°C) 102.24 kPa 10 miles 51% 29.8°F (-1.2°C) 1 mph SW 225°
18:00 Partly Cloudy 48°F (8.9°C) 102.3 kPa 10 miles 48% 29.3°F (-1.5°C) 1 mph SSW 206°
17:00 Partly Cloudy 52°F (11.1°C) 102.3 kPa 10 miles 43% 30.2°F (-1°C) 1 mph SSW 195°3 mph
16:00 Fair 52°F (11.1°C) 102.3 kPa 10 miles 43% 30.2°F (-1°C) 1 mph SSW 195°3 mph
15:00 Fair 56°F (13.3°C) 102.3 kPa 10 miles 40% 32°F (0°C) 1 mph SE 135°2 mph
14:00 Fair 56°F (13.3°C) 102.37 kPa 10 miles 40% 32°F (0°C) 1 mph ESE 122°4 mph
13:00 Fair 53°F (11.7°C) 102.37 kPa 10 miles 41% 29.9°F (-1.1°C) 1 mph S 191°
12:00 Fair 52°F (11.1°C) 102.4 kPa 10 miles 45% 31.3°F (-0.4°C) 1 mph E 90°2 mph
11:00 Fair 45°F (7.2°C) 102.51 kPa 10 miles 54% 29.4°F (-1.5°C) 1 mph SW 215°
10:00 Fair 39°F (3.9°C) 102.61 kPa 10 miles 60% 26.3°F (-3.2°C) 1 mph W 270°2 mph
09:00 Fair 32°F (0°C) 102.68 kPa 10 miles 78% 25.9°F (-3.4°C) 1 mph S 191°
08:00 Fair 30°F (-1.1°C) 102.64 kPa 10 miles 81% 24.9°F (-3.9°C) 1 mph W 270°
07:00 Fair 27°F (-2.8°C) 102.64 kPa 10 miles 76% 20.5°F (-6.4°C) 1 mph W 270°
06:00 Fair 28°F (-2.2°C) 102.64 kPa 10 miles 75% 21.1°F (-6°C) 1 mph WSW 239°
05:00 Fair 30°F (-1.1°C) 102.57 kPa 10 miles 69% 21.1°F (-6.1°C) 1 mph W 270°
04:00 Fair 30°F (-1.1°C) 102.54 kPa 10 miles 70% 21.4°F (-5.9°C) 1 mph W 270°
03:00 Fair 32°F (0°C) 102.54 kPa 10 miles 61% 20.1°F (-6.6°C) 1 mph SW 236°
02:00 Fair 32°F (0°C) 102.57 kPa 10 miles 63% 20.9°F (-6.2°C) 1 mph NW 321°2 mph


Home | Earthquakes | About Us | Contact Us | Privacy

Copyright Friendly Forecast 2012 - 2020